Time;durP1;ratioP1;P1;durP2;ratioP2;P2;SDS_P1;SDS_P2;PMS_P1;PMS_P2;Temp;Humidity;BMP_temperature;BMP_pressure;BME280_temperature;BME280_humidity;BME280_pressure;Samples;Min_cycle;Max_cycle;Signal;HPM_P1;HPM_P2
2023/08/13 00:00:25;;;;;;;;;;;;;;;;;;1036227;28;19909;-76
2023/08/13 00:00:56;;;;;;;;;;;;;;;;;;1036116;28;20377;-76
2023/08/13 00:01:26;;;;;;;;;;;;;;;;;;1036233;28;19909;-76
2023/08/13 00:01:56;;;;;;;;;;;;;;;;;;1040212;28;20384;-76
2023/08/13 00:02:26;;;;;;;;;;;;;;;;;;1040262;28;20334;-76
2023/08/13 00:02:56;;;;;;;;;;;;;;;;;;1040066;28;19910;-76
2023/08/13 00:03:27;;;;;;;;;;;;;;;;;;1044292;28;19975;-76
2023/08/13 00:03:57;;;;;;;;;;;;;;;;;;1044262;28;20003;-76
2023/08/13 00:04:27;;;;;;;;;;;;;;;;;;1040317;28;19909;-77
2023/08/13 00:04:58;;;;;;;;;;;;;;;;;;1040102;28;19913;-76
2023/08/13 00:05:28;;;;;;;;;;;;;;;;;;1040311;28;19909;-76
2023/08/13 00:05:58;;;;;;;;;;;;;;;;;;1040203;28;19999;-78
2023/08/13 00:06:28;;;;;;;;;;;;;;;;;;1040357;28;19913;-78
2023/08/13 00:06:58;;;;;;;;;;;;;;;;;;1040189;28;20436;-78
2023/08/13 00:07:29;;;;;;;;;;;;;;;;;;1040373;28;19916;-78
2023/08/13 00:07:59;;;;;;;;;;;;;;;;;;1040110;28;19909;-78
2023/08/13 00:08:29;;;;;;;;;;;;;;;;;;1040440;28;19909;-77
2023/08/13 00:08:59;;;;;;;;;;;;;;;;;;1040307;28;19909;-78
2023/08/13 00:09:30;;;;;;;;;;;;;;;;;;1040672;28;19909;-77
2023/08/13 00:10:00;;;;;;;;;;;;;;;;;;1040061;28;19955;-77
2023/08/13 00:10:30;;;;;;;;;;;;;;;;;;1040297;28;19924;-78
2023/08/13 00:11:00;;;;;;;;;;;;;;;;;;1040067;28;19909;-77
2023/08/13 00:11:32;;;;;;;;;;;;;;;;;;1040291;28;20328;-78
2023/08/13 00:12:02;;;;;;;;;;;;;;;;;;1040082;28;20262;-77
2023/08/13 00:12:32;;;;;;;;;;;;;;;;;;1036169;28;19936;-77
2023/08/13 00:13:02;;;;;;;;;;;;;;;;;;1036158;28;20454;-77
2023/08/13 00:13:33;;;;;;;;;;;;;;;;;;1040500;28;19935;-77
2023/08/13 00:14:03;;;;;;;;;;;;;;;;;;1040164;28;20008;-77
2023/08/13 00:14:33;;;;;;;;;;;;;;;;;;1040385;28;19913;-78
2023/08/13 00:15:04;;;;;;;;;;;;;;;;;;1040090;28;19925;-77
2023/08/13 00:15:34;;;;;;;;;;;;;;;;;;1036269;28;19914;-77
2023/08/13 00:16:05;;;;;;;;;;;;;;;;;;1040249;28;19916;-78
2023/08/13 00:16:35;;;;;;;;;;;;;;;;;;1040386;28;19913;-78
2023/08/13 00:17:05;;;;;;;;;;;;;;;;;;1040107;28;19909;-77
2023/08/13 00:17:35;;;;;;;;;;;;;;;;;;1044795;28;19923;-77
2023/08/13 00:18:05;;;;;;;;;;;;;;;;;;1044557;28;20007;-77
2023/08/13 00:18:36;;;;;;;;;;;;;;;;;;1044843;28;20261;-78
2023/08/13 00:19:06;;;;;;;;;;;;;;;;;;1040129;28;20293;-78
2023/08/13 00:19:36;;;;;;;;;;;;;;;;;;1036138;28;19914;-77
2023/08/13 00:20:07;;;;;;;;;;;;;;;;;;1036035;28;20378;-77
2023/08/13 00:20:37;;;;;;;;;;;;;;;;;;1036189;28;19920;-77
2023/08/13 00:21:07;;;;;;;;;;;;;;;;;;1040053;28;19916;-78
2023/08/13 00:21:38;;;;;;;;;;;;;;;;;;1040403;28;19914;-77
2023/08/13 00:22:08;;;;;;;;;;;;;;;;;;1035920;28;19909;-76
2023/08/13 00:22:38;;;;;;;;;;;;;;;;;;1036113;28;19945;-76
2023/08/13 00:23:08;;;;;;;;;;;;;;;;;;1040085;28;20400;-76
2023/08/13 00:23:38;;;;;;;;;;;;;;;;;;1040239;28;20423;-76
2023/08/13 00:24:09;;;;;;;;;;;;;;;;;;1039996;28;19999;-76
2023/08/13 00:24:39;;;;;;;;;;;;;;;;;;1040234;28;19913;-76
2023/08/13 00:25:09;;;;;;;;;;;;;;;;;;1035964;28;20007;-76
2023/08/13 00:25:39;;;;;;;;;;;;;;;;;;1036021;28;19944;-76
2023/08/13 00:26:10;;;;;;;;;;;;;;;;;;1040167;28;20007;-76
2023/08/13 00:26:41;;;;;;;;;;;;;;;;;;1040200;28;19919;-75
2023/08/13 00:27:12;;;;;;;;;;;;;;;;;;1044261;28;19909;-76
2023/08/13 00:27:42;;;;;;;;;;;;;;;;;;1044579;28;20427;-76
2023/08/13 00:28:13;;;;;;;;;;;;;;;;;;1044611;28;20337;-76
2023/08/13 00:28:43;;;;;;;;;;;;;;;;;;1044616;28;20003;-77
2023/08/13 00:29:13;;;;;;;;;;;;;;;;;;1040128;28;19964;-77
2023/08/13 00:29:43;;;;;;;;;;;;;;;;;;1040332;28;19925;-77
2023/08/13 00:30:14;;;;;;;;;;;;;;;;;;1040308;28;19924;-77
2023/08/13 00:30:44;;;;;;;;;;;;;;;;;;1040305;28;19917;-77
2023/08/13 00:31:14;;;;;;;;;;;;;;;;;;1044613;28;20019;-77
2023/08/13 00:31:44;;;;;;;;;;;;;;;;;;1040217;28;19909;-77
2023/08/13 00:32:15;;;;;;;;;;;;;;;;;;1040054;28;20023;-77
2023/08/13 00:32:45;;;;;;;;;;;;;;;;;;1040251;28;19909;-77
2023/08/13 00:33:15;;;;;;;;;;;;;;;;;;1040118;28;19909;-77
2023/08/13 00:33:45;;;;;;;;;;;;;;;;;;1044672;28;19912;-77
2023/08/13 00:34:16;;;;;;;;;;;;;;;;;;1044715;28;20276;-77
2023/08/13 00:34:46;;;;;;;;;;;;;;;;;;1040254;28;19913;-77
2023/08/13 00:35:16;;;;;;;;;;;;;;;;;;1040278;28;20012;-77
2023/08/13 00:35:46;;;;;;;;;;;;;;;;;;1040149;28;19910;-77
2023/08/13 00:36:16;;;;;;;;;;;;;;;;;;1040137;28;19913;-76
2023/08/13 00:36:47;;;;;;;;;;;;;;;;;;1040100;28;19933;-76
2023/08/13 00:37:17;;;;;;;;;;;;;;;;;;1040037;28;19967;-76
2023/08/13 00:37:47;;;;;;;;;;;;;;;;;;1040296;28;20009;-77
2023/08/13 00:38:17;;;;;;;;;;;;;;;;;;1040277;28;19932;-76
2023/08/13 00:38:48;;;;;;;;;;;;;;;;;;1040076;28;20035;-76
2023/08/13 00:39:18;;;;;;;;;;;;;;;;;;1039999;28;20266;-76
2023/08/13 00:39:48;;;;;;;;;;;;;;;;;;1040196;28;19909;-76
2023/08/13 00:40:18;;;;;;;;;;;;;;;;;;1040091;28;19956;-76
2023/08/13 00:40:49;;;;;;;;;;;;;;;;;;1040229;28;19916;-76
2023/08/13 00:41:19;;;;;;;;;;;;;;;;;;1044517;28;19915;-76
2023/08/13 00:41:49;;;;;;;;;;;;;;;;;;1044621;28;19944;-76
2023/08/13 00:42:19;;;;;;;;;;;;;;;;;;1044698;28;19919;-76
2023/08/13 00:42:50;;;;;;;;;;;;;;;;;;1045425;28;19904;-76
2023/08/13 00:43:20;;;;;;;;;;;;;;;;;;1045357;28;19909;-77
2023/08/13 00:43:50;;;;;;;;;;;;;;;;;;1040929;28;19909;-76
2023/08/13 00:44:20;;;;;;;;;;;;;;;;;;1040758;28;20357;-76
2023/08/13 00:44:50;;;;;;;;;;;;;;;;;;1040996;28;20004;-76
2023/08/13 00:45:21;;;;;;;;;;;;;;;;;;1040728;28;19909;-76
2023/08/13 00:45:51;;;;;;;;;;;;;;;;;;1040842;28;19944;-76
2023/08/13 00:46:21;;;;;;;;;;;;;;;;;;1040826;28;20362;-76
2023/08/13 00:46:51;;;;;;;;;;;;;;;;;;1040959;28;19909;-76
2023/08/13 00:47:22;;;;;;;;;;;;;;;;;;1036629;28;20007;-76
2023/08/13 00:47:52;;;;;;;;;;;;;;;;;;1040883;28;20424;-75
2023/08/13 00:48:22;;;;;;;;;;;;;;;;;;1040919;28;20381;-76
2023/08/13 00:48:52;;;;;;;;;;;;;;;;;;1040852;28;20308;-76
2023/08/13 00:49:23;;;;;;;;;;;;;;;;;;1045412;28;20369;-76
2023/08/13 00:49:54;;;;;;;;;;;;;;;;;;1045225;28;19909;-76
2023/08/13 00:50:24;;;;;;;;;;;;;;;;;;1045509;28;19916;-77
2023/08/13 00:50:54;;;;;;;;;;;;;;;;;;1040811;28;19916;-77
2023/08/13 00:51:25;;;;;;;;;;;;;;;;;;1040921;28;20443;-77
2023/08/13 00:51:55;;;;;;;;;;;;;;;;;;1040905;28;20258;-77
2023/08/13 00:52:26;;;;;;;;;;;;;;;;;;1040855;28;20443;-77
2023/08/13 00:52:56;;;;;;;;;;;;;;;;;;1040831;28;20308;-76
2023/08/13 00:53:26;;;;;;;;;;;;;;;;;;1036920;28;20341;-77
2023/08/13 00:53:56;;;;;;;;;;;;;;;;;;1036732;28;20372;-76
2023/08/13 00:54:26;;;;;;;;;;;;;;;;;;1040930;28;19960;-76
2023/08/13 00:54:57;;;;;;;;;;;;;;;;;;1040761;28;19909;-76
2023/08/13 00:55:27;;;;;;;;;;;;;;;;;;1045332;28;20396;-76
2023/08/13 00:55:57;;;;;;;;;;;;;;;;;;1040651;28;19909;-76
2023/08/13 00:56:27;;;;;;;;;;;;;;;;;;1040845;28;19909;-75
2023/08/13 00:56:58;;;;;;;;;;;;;;;;;;1040763;28;20027;-76
2023/08/13 00:57:28;;;;;;;;;;;;;;;;;;1040863;28;19917;-76
2023/08/13 00:57:58;;;;;;;;;;;;;;;;;;1040783;28;19955;-76
2023/08/13 00:58:28;;;;;;;;;;;;;;;;;;1045295;28;19909;-76
2023/08/13 00:58:58;;;;;;;;;;;;;;;;;;1045258;28;19906;-76
2023/08/13 00:59:29;;;;;;;;;;;;;;;;;;1045319;28;19954;-75
2023/08/13 00:59:59;;;;;;;;;;;;;;;;;;1040659;28;19909;-75
2023/08/13 01:00:29;;;;;;;;;;;;;;;;;;1040937;28;19909;-76
2023/08/13 01:00:59;;;;;;;;;;;;;;;;;;1040636;28;19910;-76
2023/08/13 01:01:30;;;;;;;;;;;;;;;;;;1040896;28;19915;-76
2023/08/13 01:02:00;;;;;;;;;;;;;;;;;;1040587;28;19916;-76
2023/08/13 01:02:30;;;;;;;;;;;;;;;;;;1040989;28;19917;-76
2023/08/13 01:03:00;;;;;;;;;;;;;;;;;;1045118;28;19909;-76
2023/08/13 01:03:31;;;;;;;;;;;;;;;;;;1045331;28;19924;-76
2023/08/13 01:04:01;;;;;;;;;;;;;;;;;;1040599;28;19909;-76
2023/08/13 01:04:31;;;;;;;;;;;;;;;;;;1040914;28;20397;-76
2023/08/13 01:05:32;;;;;;;;;;;;;;;;;;1046314;22;19929;-76
2023/08/13 01:06:03;;;;;;;;;;;;;;;;;;1041067;28;20008;-76
2023/08/13 01:06:34;;;;;;;;;;;;;;;;;;1041280;28;19913;-77
2023/08/13 01:07:04;;;;;;;;;;;;;;;;;;1041054;28;20007;-77
2023/08/13 01:07:35;;;;;;;;;;;;;;;;;;1040910;28;19983;-76
2023/08/13 01:08:05;;;;;;;;;;;;;;;;;;1040763;28;20000;-76
2023/08/13 01:08:35;;;;;;;;;;;;;;;;;;1040991;28;19920;-76
2023/08/13 01:09:08;;;;;;;;;;;;;;;;;;1040775;28;19923;-76
2023/08/13 01:09:39;;;;;;;;;;;;;;;;;;1041273;28;19920;-77
2023/08/13 01:10:09;;;;;;;;;;;;;;;;;;1040715;28;20289;-76
2023/08/13 01:10:39;;;;;;;;;;;;;;;;;;1040867;28;20309;-76
2023/08/13 01:11:10;;;;;;;;;;;;;;;;;;1040850;28;20284;-76
2023/08/13 01:11:40;;;;;;;;;;;;;;;;;;1040848;28;20403;-76
2023/08/13 01:12:10;;;;;;;;;;;;;;;;;;1040668;28;20392;-76
2023/08/13 01:12:40;;;;;;;;;;;;;;;;;;1040880;28;20334;-77
2023/08/13 01:13:11;;;;;;;;;;;;;;;;;;1044105;28;19913;-77
2023/08/13 01:13:41;;;;;;;;;;;;;;;;;;1045043;28;19909;-77
2023/08/13 01:14:11;;;;;;;;;;;;;;;;;;1045345;28;19909;-77
2023/08/13 01:14:42;;;;;;;;;;;;;;;;;;1045320;28;19909;-77
2023/08/13 01:15:12;;;;;;;;;;;;;;;;;;1044790;28;19912;-76
2023/08/13 01:15:42;;;;;;;;;;;;;;;;;;1044987;28;19917;-76
2023/08/13 01:16:12;;;;;;;;;;;;;;;;;;1044783;28;19916;-76
2023/08/13 01:16:43;;;;;;;;;;;;;;;;;;1044870;28;19924;-76
2023/08/13 01:17:13;;;;;;;;;;;;;;;;;;1044819;28;19924;-75
2023/08/13 01:17:43;;;;;;;;;;;;;;;;;;1044938;28;19919;-76
2023/08/13 01:18:13;;;;;;;;;;;;;;;;;;1040635;28;20432;-75
2023/08/13 01:18:44;;;;;;;;;;;;;;;;;;1044908;28;19908;-76
2023/08/13 01:19:14;;;;;;;;;;;;;;;;;;1044760;28;20355;-76
2023/08/13 01:19:44;;;;;;;;;;;;;;;;;;1044943;28;19915;-76
2023/08/13 01:20:15;;;;;;;;;;;;;;;;;;1044907;28;19916;-76
2023/08/13 01:20:45;;;;;;;;;;;;;;;;;;1042323;28;19913;-76
2023/08/13 01:21:15;;;;;;;;;;;;;;;;;;1040742;28;19909;-76
2023/08/13 01:21:46;;;;;;;;;;;;;;;;;;1040775;28;20008;-76
2023/08/13 01:22:16;;;;;;;;;;;;;;;;;;1040787;28;19956;-76
2023/08/13 01:22:46;;;;;;;;;;;;;;;;;;1040722;28;19920;-76
2023/08/13 01:23:16;;;;;;;;;;;;;;;;;;1040795;28;20365;-76
2023/08/13 01:23:47;;;;;;;;;;;;;;;;;;1036634;28;19916;-76
2023/08/13 01:24:17;;;;;;;;;;;;;;;;;;1036633;28;19910;-75
2023/08/13 01:24:47;;;;;;;;;;;;;;;;;;1040845;28;19943;-77
2023/08/13 01:25:18;;;;;;;;;;;;;;;;;;1036555;28;19909;-77
2023/08/13 01:25:48;;;;;;;;;;;;;;;;;;1040755;28;20011;-76
2023/08/13 01:26:18;;;;;;;;;;;;;;;;;;1040751;28;20344;-76
2023/08/13 01:26:49;;;;;;;;;;;;;;;;;;1036574;28;19964;-76
2023/08/13 01:27:19;;;;;;;;;;;;;;;;;;1036563;28;19913;-76
2023/08/13 01:27:49;;;;;;;;;;;;;;;;;;1040815;28;19917;-76
2023/08/13 01:28:19;;;;;;;;;;;;;;;;;;1040721;28;20008;-76
2023/08/13 01:28:49;;;;;;;;;;;;;;;;;;1041051;28;20277;-76
2023/08/13 01:29:20;;;;;;;;;;;;;;;;;;1041020;28;19935;-76
2023/08/13 01:29:50;;;;;;;;;;;;;;;;;;1041127;28;19909;-75
2023/08/13 01:30:20;;;;;;;;;;;;;;;;;;1040608;28;19909;-75
2023/08/13 01:30:50;;;;;;;;;;;;;;;;;;1040891;28;19909;-77
2023/08/13 01:31:20;;;;;;;;;;;;;;;;;;1040621;28;19967;-77
2023/08/13 01:31:51;;;;;;;;;;;;;;;;;;1040872;28;19910;-77
2023/08/13 01:32:22;;;;;;;;;;;;;;;;;;1040688;28;19913;-77
2023/08/13 01:32:52;;;;;;;;;;;;;;;;;;1036754;28;20004;-77
2023/08/13 01:33:31;;;;;;;;;;;;;;;;;;1036660;28;19917;-77
2023/08/13 01:34:01;;;;;;;;;;;;;;;;;;1036655;28;20455;-77
2023/08/13 01:34:31;;;;;;;;;;;;;;;;;;1037972;28;19959;-77
2023/08/13 01:35:02;;;;;;;;;;;;;;;;;;1037655;28;19981;-77
2023/08/13 01:35:32;;;;;;;;;;;;;;;;;;1040812;28;19914;-77
2023/08/13 01:36:02;;;;;;;;;;;;;;;;;;1040572;28;19916;-77
2023/08/13 01:36:32;;;;;;;;;;;;;;;;;;1040823;28;20432;-77
2023/08/13 01:37:02;;;;;;;;;;;;;;;;;;1040642;28;20064;-77
2023/08/13 01:37:33;;;;;;;;;;;;;;;;;;1040904;28;19921;-77
2023/08/13 01:38:03;;;;;;;;;;;;;;;;;;1036505;28;19936;-77
2023/08/13 01:38:33;;;;;;;;;;;;;;;;;;1040831;28;19912;-76
2023/08/13 01:39:05;;;;;;;;;;;;;;;;;;1036510;28;19917;-75
2023/08/13 01:39:35;;;;;;;;;;;;;;;;;;1036731;28;19913;-76
2023/08/13 01:40:06;;;;;;;;;;;;;;;;;;1040604;28;20392;-74
2023/08/13 01:40:36;;;;;;;;;;;;;;;;;;1036611;28;19913;-76
2023/08/13 01:41:06;;;;;;;;;;;;;;;;;;1032511;28;20398;-75
2023/08/13 01:41:36;;;;;;;;;;;;;;;;;;1036830;28;20332;-75
2023/08/13 01:42:10;;;;;;;;;;;;;;;;;;1032284;28;19910;-76
2023/08/13 01:42:40;;;;;;;;;;;;;;;;;;1037017;28;19913;-76
2023/08/13 01:43:10;;;;;;;;;;;;;;;;;;1040675;28;20004;-76
2023/08/13 01:43:40;;;;;;;;;;;;;;;;;;1040847;28;20369;-76
2023/08/13 01:44:11;;;;;;;;;;;;;;;;;;1040594;28;20380;-77
2023/08/13 01:44:41;;;;;;;;;;;;;;;;;;1040692;28;20381;-76
2023/08/13 01:45:11;;;;;;;;;;;;;;;;;;1040649;28;19909;-75
2023/08/13 01:45:41;;;;;;;;;;;;;;;;;;1040733;28;19909;-75
2023/08/13 01:46:11;;;;;;;;;;;;;;;;;;1040690;28;19909;-76
2023/08/13 01:46:42;;;;;;;;;;;;;;;;;;1041054;28;20003;-76
2023/08/13 01:47:12;;;;;;;;;;;;;;;;;;1040458;28;20169;-76
2023/08/13 01:47:42;;;;;;;;;;;;;;;;;;1040705;28;19917;-76
2023/08/13 01:48:12;;;;;;;;;;;;;;;;;;1040555;28;19923;-76
2023/08/13 01:48:43;;;;;;;;;;;;;;;;;;1040612;28;20483;-76
2023/08/13 01:49:13;;;;;;;;;;;;;;;;;;1040713;28;20361;-76
2023/08/13 01:49:43;;;;;;;;;;;;;;;;;;1040716;28;20458;-76
2023/08/13 01:50:13;;;;;;;;;;;;;;;;;;1040654;28;20376;-76
2023/08/13 01:50:43;;;;;;;;;;;;;;;;;;1041002;28;20435;-76
2023/08/13 01:51:14;;;;;;;;;;;;;;;;;;1040998;28;20020;-76
2023/08/13 01:51:44;;;;;;;;;;;;;;;;;;1040987;28;20363;-76
2023/08/13 01:52:14;;;;;;;;;;;;;;;;;;1040946;28;19909;-77
2023/08/13 01:52:44;;;;;;;;;;;;;;;;;;1040552;28;19909;-77
2023/08/13 01:53:15;;;;;;;;;;;;;;;;;;1040630;28;19909;-77
2023/08/13 01:53:45;;;;;;;;;;;;;;;;;;1040317;28;19909;-78
2023/08/13 01:54:15;;;;;;;;;;;;;;;;;;1040141;28;19949;-77
2023/08/13 01:54:46;;;;;;;;;;;;;;;;;;1040638;28;20012;-77
2023/08/13 01:55:16;;;;;;;;;;;;;;;;;;1040728;28;20004;-76
2023/08/13 01:55:46;;;;;;;;;;;;;;;;;;1040968;28;19909;-77
2023/08/13 01:56:17;;;;;;;;;;;;;;;;;;1041053;28;19916;-77
2023/08/13 01:56:47;;;;;;;;;;;;;;;;;;1040726;28;19909;-78
2023/08/13 01:57:17;;;;;;;;;;;;;;;;;;1040554;28;19959;-77
2023/08/13 01:57:47;;;;;;;;;;;;;;;;;;1040741;28;19919;-76
2023/08/13 01:58:18;;;;;;;;;;;;;;;;;;1040658;28;19963;-76
2023/08/13 01:58:48;;;;;;;;;;;;;;;;;;1041073;28;20387;-77
2023/08/13 01:59:18;;;;;;;;;;;;;;;;;;1040937;28;20289;-76
2023/08/13 01:59:48;;;;;;;;;;;;;;;;;;1041053;28;19909;-77
2023/08/13 02:00:19;;;;;;;;;;;;;;;;;;1040961;28;19909;-78
2023/08/13 02:00:49;;;;;;;;;;;;;;;;;;1040956;28;19909;-76
2023/08/13 02:01:20;;;;;;;;;;;;;;;;;;1040947;28;19909;-76
2023/08/13 02:01:50;;;;;;;;;;;;;;;;;;1040610;28;20003;-76
2023/08/13 02:02:20;;;;;;;;;;;;;;;;;;1040501;28;20369;-76
2023/08/13 02:02:51;;;;;;;;;;;;;;;;;;1040743;28;20003;-76
2023/08/13 02:03:21;;;;;;;;;;;;;;;;;;1040669;28;19998;-77
2023/08/13 02:03:51;;;;;;;;;;;;;;;;;;1040757;28;19944;-77
2023/08/13 02:04:21;;;;;;;;;;;;;;;;;;1040979;28;19916;-75
2023/08/13 02:04:51;;;;;;;;;;;;;;;;;;1040867;28;19916;-75
2023/08/13 02:05:22;;;;;;;;;;;;;;;;;;1040464;28;20380;-75
2023/08/13 02:05:52;;;;;;;;;;;;;;;;;;1040594;28;19917;-77
2023/08/13 02:06:22;;;;;;;;;;;;;;;;;;1040715;28;19971;-77
2023/08/13 02:06:53;;;;;;;;;;;;;;;;;;1040590;28;19924;-77
2023/08/13 02:07:23;;;;;;;;;;;;;;;;;;1040637;28;20288;-76
2023/08/13 02:07:53;;;;;;;;;;;;;;;;;;1040438;28;19905;-76
2023/08/13 02:08:23;;;;;;;;;;;;;;;;;;1036526;28;19909;-75
2023/08/13 02:08:53;;;;;;;;;;;;;;;;;;1036414;28;19910;-75
2023/08/13 02:09:24;;;;;;;;;;;;;;;;;;1036602;28;19916;-75
2023/08/13 02:09:54;;;;;;;;;;;;;;;;;;1040494;28;20453;-75
2023/08/13 02:10:24;;;;;;;;;;;;;;;;;;1040626;28;19915;-76
2023/08/13 02:10:54;;;;;;;;;;;;;;;;;;1040467;28;19916;-76
2023/08/13 02:11:25;;;;;;;;;;;;;;;;;;1040690;28;19909;-76
2023/08/13 02:11:55;;;;;;;;;;;;;;;;;;1040652;28;19948;-77
2023/08/13 02:12:25;;;;;;;;;;;;;;;;;;1040658;28;20292;-77
2023/08/13 02:12:55;;;;;;;;;;;;;;;;;;1042040;28;20266;-76
2023/08/13 02:13:26;;;;;;;;;;;;;;;;;;1045094;28;19943;-76
2023/08/13 02:13:56;;;;;;;;;;;;;;;;;;1044941;28;20365;-76
2023/08/13 02:14:27;;;;;;;;;;;;;;;;;;1045173;28;20408;-76
2023/08/13 02:14:57;;;;;;;;;;;;;;;;;;1044982;28;19974;-75
2023/08/13 02:15:27;;;;;;;;;;;;;;;;;;1045134;28;20478;-75
2023/08/13 02:15:58;;;;;;;;;;;;;;;;;;1044455;28;20369;-76
2023/08/13 02:16:28;;;;;;;;;;;;;;;;;;1044822;28;20430;-75
2023/08/13 02:16:58;;;;;;;;;;;;;;;;;;1044544;28;20405;-75
2023/08/13 02:17:29;;;;;;;;;;;;;;;;;;1044759;28;20288;-75
2023/08/13 02:17:59;;;;;;;;;;;;;;;;;;1044944;28;20003;-75
2023/08/13 02:18:29;;;;;;;;;;;;;;;;;;1045043;28;19935;-74
2023/08/13 02:18:59;;;;;;;;;;;;;;;;;;1044902;28;19915;-74
2023/08/13 02:19:29;;;;;;;;;;;;;;;;;;1045100;28;19908;-73
2023/08/13 02:20:00;;;;;;;;;;;;;;;;;;1044465;28;19909;-73
2023/08/13 02:20:30;;;;;;;;;;;;;;;;;;1044365;28;19967;-73
2023/08/13 02:21:00;;;;;;;;;;;;;;;;;;1040492;28;19915;-73
2023/08/13 02:21:30;;;;;;;;;;;;;;;;;;1040630;28;20012;-73
2023/08/13 02:22:01;;;;;;;;;;;;;;;;;;1040689;28;19909;-75
2023/08/13 02:22:31;;;;;;;;;;;;;;;;;;1040918;28;20055;-74
2023/08/13 02:23:01;;;;;;;;;;;;;;;;;;1040752;28;19909;-74
2023/08/13 02:23:31;;;;;;;;;;;;;;;;;;1040909;28;19913;-74
2023/08/13 02:24:01;;;;;;;;;;;;;;;;;;1040739;28;19909;-75
2023/08/13 02:24:32;;;;;;;;;;;;;;;;;;1040918;28;19920;-75
2023/08/13 02:25:02;;;;;;;;;;;;;;;;;;1040731;28;20270;-74
2023/08/13 02:25:32;;;;;;;;;;;;;;;;;;1040534;28;20619;-74
2023/08/13 02:26:02;;;;;;;;;;;;;;;;;;1040451;28;19983;-76
2023/08/13 02:26:33;;;;;;;;;;;;;;;;;;1040626;28;19917;-74
2023/08/13 02:27:03;;;;;;;;;;;;;;;;;;1040300;28;19917;-74
2023/08/13 02:27:33;;;;;;;;;;;;;;;;;;1040640;28;19913;-73
2023/08/13 02:28:03;;;;;;;;;;;;;;;;;;1036300;28;19909;-73
2023/08/13 02:28:33;;;;;;;;;;;;;;;;;;1036508;28;19914;-74
2023/08/13 02:29:04;;;;;;;;;;;;;;;;;;1040439;28;20388;-75
2023/08/13 02:29:34;;;;;;;;;;;;;;;;;;1040609;28;19972;-74
2023/08/13 02:30:04;;;;;;;;;;;;;;;;;;1040773;28;20285;-75
2023/08/13 02:30:34;;;;;;;;;;;;;;;;;;1040870;28;19913;-75
2023/08/13 02:31:05;;;;;;;;;;;;;;;;;;1040716;28;19942;-76
2023/08/13 02:31:35;;;;;;;;;;;;;;;;;;1040473;28;20012;-76
2023/08/13 02:32:05;;;;;;;;;;;;;;;;;;1040332;28;20419;-76
2023/08/13 02:32:35;;;;;;;;;;;;;;;;;;1040571;28;20398;-76
2023/08/13 02:33:06;;;;;;;;;;;;;;;;;;1040442;28;19909;-75
2023/08/13 02:33:36;;;;;;;;;;;;;;;;;;1040447;28;20008;-74
2023/08/13 02:34:06;;;;;;;;;;;;;;;;;;1040424;28;20282;-74
2023/08/13 02:34:36;;;;;;;;;;;;;;;;;;1040659;28;20293;-74
2023/08/13 02:35:07;;;;;;;;;;;;;;;;;;1040389;28;19909;-74
2023/08/13 02:35:37;;;;;;;;;;;;;;;;;;1040492;28;19913;-73
2023/08/13 02:36:07;;;;;;;;;;;;;;;;;;1040371;28;19910;-74
2023/08/13 02:36:37;;;;;;;;;;;;;;;;;;1040635;28;19913;-74
2023/08/13 02:37:08;;;;;;;;;;;;;;;;;;1040164;28;19975;-76
2023/08/13 02:37:38;;;;;;;;;;;;;;;;;;1040664;28;19917;-75
2023/08/13 02:38:09;;;;;;;;;;;;;;;;;;1036201;28;19910;-76
2023/08/13 02:38:39;;;;;;;;;;;;;;;;;;1036396;28;20378;-75
2023/08/13 02:39:10;;;;;;;;;;;;;;;;;;1036408;28;19909;-75
2023/08/13 02:39:40;;;;;;;;;;;;;;;;;;1036527;28;20285;-75
2023/08/13 02:40:10;;;;;;;;;;;;;;;;;;1040491;28;20285;-74
2023/08/13 02:40:40;;;;;;;;;;;;;;;;;;1040775;28;19919;-74
2023/08/13 02:41:11;;;;;;;;;;;;;;;;;;1040774;28;20021;-76
2023/08/13 02:41:41;;;;;;;;;;;;;;;;;;1040362;28;19916;-74
2023/08/13 02:42:11;;;;;;;;;;;;;;;;;;1040440;28;19910;-75
2023/08/13 02:42:41;;;;;;;;;;;;;;;;;;1040386;28;20376;-76
2023/08/13 02:43:11;;;;;;;;;;;;;;;;;;1040447;28;20433;-75
2023/08/13 02:43:42;;;;;;;;;;;;;;;;;;1040529;28;20411;-74
2023/08/13 02:44:12;;;;;;;;;;;;;;;;;;1040400;28;20361;-75
2023/08/13 02:44:42;;;;;;;;;;;;;;;;;;1040412;28;20522;-75
2023/08/13 02:45:12;;;;;;;;;;;;;;;;;;1040447;28;20400;-75
2023/08/13 02:45:43;;;;;;;;;;;;;;;;;;1040472;28;20357;-75
2023/08/13 02:46:13;;;;;;;;;;;;;;;;;;1040471;28;20015;-76
2023/08/13 02:46:43;;;;;;;;;;;;;;;;;;1040772;28;19959;-76
2023/08/13 02:47:13;;;;;;;;;;;;;;;;;;1040278;28;19909;-73
2023/08/13 02:47:43;;;;;;;;;;;;;;;;;;1040459;28;19909;-75
2023/08/13 02:48:14;;;;;;;;;;;;;;;;;;1040440;28;19909;-75
2023/08/13 02:48:45;;;;;;;;;;;;;;;;;;1040419;28;19916;-75
2023/08/13 02:49:15;;;;;;;;;;;;;;;;;;1040427;28;19909;-76
2023/08/13 02:49:45;;;;;;;;;;;;;;;;;;1036297;28;19932;-76
2023/08/13 02:50:16;;;;;;;;;;;;;;;;;;1036458;28;19909;-76
2023/08/13 02:50:46;;;;;;;;;;;;;;;;;;1040506;28;19909;-77
2023/08/13 02:51:16;;;;;;;;;;;;;;;;;;1040487;28;19952;-75
2023/08/13 02:51:46;;;;;;;;;;;;;;;;;;1040367;28;19909;-75
2023/08/13 02:52:17;;;;;;;;;;;;;;;;;;1040400;28;20007;-75
2023/08/13 02:52:47;;;;;;;;;;;;;;;;;;1040369;28;19915;-75
2023/08/13 02:53:17;;;;;;;;;;;;;;;;;;1036164;28;19910;-75
2023/08/13 02:53:48;;;;;;;;;;;;;;;;;;1040484;28;19951;-74
2023/08/13 02:54:18;;;;;;;;;;;;;;;;;;1040359;28;19909;-75
2023/08/13 02:54:48;;;;;;;;;;;;;;;;;;1040491;28;19924;-74
2023/08/13 02:55:18;;;;;;;;;;;;;;;;;;1040740;28;20028;-75
2023/08/13 02:55:49;;;;;;;;;;;;;;;;;;1040778;28;19909;-76
2023/08/13 02:56:19;;;;;;;;;;;;;;;;;;1040668;28;19916;-76
2023/08/13 02:56:49;;;;;;;;;;;;;;;;;;1040787;28;19916;-75
2023/08/13 02:57:19;;;;;;;;;;;;;;;;;;1040544;28;19913;-75
2023/08/13 02:57:49;;;;;;;;;;;;;;;;;;1040743;28;19912;-75
2023/08/13 02:58:20;;;;;;;;;;;;;;;;;;1040685;28;20407;-75
2023/08/13 02:58:50;;;;;;;;;;;;;;;;;;1040732;28;19909;-75
2023/08/13 02:59:20;;;;;;;;;;;;;;;;;;1040201;28;19999;-76
2023/08/13 02:59:50;;;;;;;;;;;;;;;;;;1040353;28;19909;-76
2023/08/13 03:00:21;;;;;;;;;;;;;;;;;;1040312;28;19945;-76
2023/08/13 03:00:51;;;;;;;;;;;;;;;;;;1040503;28;19968;-76
2023/08/13 03:01:21;;;;;;;;;;;;;;;;;;1040321;28;19910;-76
2023/08/13 03:01:51;;;;;;;;;;;;;;;;;;1040413;28;19909;-74
2023/08/13 03:02:22;;;;;;;;;;;;;;;;;;1040376;28;19917;-75
2023/08/13 03:02:52;;;;;;;;;;;;;;;;;;1040397;28;19912;-76
2023/08/13 03:03:22;;;;;;;;;;;;;;;;;;1040737;28;19913;-76
2023/08/13 03:03:53;;;;;;;;;;;;;;;;;;1040279;28;19983;-75
2023/08/13 03:04:23;;;;;;;;;;;;;;;;;;1040624;28;19944;-76
2023/08/13 03:04:54;;;;;;;;;;;;;;;;;;1040253;28;19909;-74
2023/08/13 03:05:24;;;;;;;;;;;;;;;;;;1040251;28;19909;-75
2023/08/13 03:05:54;;;;;;;;;;;;;;;;;;1040321;28;19979;-75
2023/08/13 03:06:25;;;;;;;;;;;;;;;;;;1040416;28;19963;-74
2023/08/13 03:06:55;;;;;;;;;;;;;;;;;;1040332;28;19913;-75
2023/08/13 03:07:25;;;;;;;;;;;;;;;;;;1040275;28;19913;-75
2023/08/13 03:07:55;;;;;;;;;;;;;;;;;;1040340;28;19909;-75
2023/08/13 03:08:25;;;;;;;;;;;;;;;;;;1040437;28;19909;-77
2023/08/13 03:08:56;;;;;;;;;;;;;;;;;;1040343;28;19931;-79
2023/08/13 03:09:26;;;;;;;;;;;;;;;;;;1040363;28;19909;-77
2023/08/13 03:09:56;;;;;;;;;;;;;;;;;;1040319;28;19936;-75
2023/08/13 03:10:26;;;;;;;;;;;;;;;;;;1040573;28;20386;-77
2023/08/13 03:10:57;;;;;;;;;;;;;;;;;;1040297;28;20000;-77
2023/08/13 03:11:27;;;;;;;;;;;;;;;;;;1040371;28;19915;-76
2023/08/13 03:11:57;;;;;;;;;;;;;;;;;;1040304;28;20396;-77
2023/08/13 03:12:27;;;;;;;;;;;;;;;;;;1040408;28;20327;-78
2023/08/13 03:12:58;;;;;;;;;;;;;;;;;;1041727;28;19913;-77
2023/08/13 03:13:28;;;;;;;;;;;;;;;;;;1044562;28;19996;-77
2023/08/13 03:13:58;;;;;;;;;;;;;;;;;;1044447;28;19964;-78
2023/08/13 03:14:28;;;;;;;;;;;;;;;;;;1044642;28;20003;-78
2023/08/13 03:14:59;;;;;;;;;;;;;;;;;;1040354;28;19909;-78
2023/08/13 03:15:29;;;;;;;;;;;;;;;;;;1044682;28;20414;-78
2023/08/13 03:15:59;;;;;;;;;;;;;;;;;;1040159;28;20031;-78
2023/08/13 03:16:29;;;;;;;;;;;;;;;;;;1040466;28;19916;-78
2023/08/13 03:16:59;;;;;;;;;;;;;;;;;;1044128;28;19908;-77
2023/08/13 03:17:30;;;;;;;;;;;;;;;;;;1044461;28;19913;-76
2023/08/13 03:18:00;;;;;;;;;;;;;;;;;;1044449;28;19968;-76
2023/08/13 03:18:30;;;;;;;;;;;;;;;;;;1044524;28;19943;-76
2023/08/13 03:19:00;;;;;;;;;;;;;;;;;;1044785;28;19916;-77
2023/08/13 03:19:31;;;;;;;;;;;;;;;;;;1044962;28;19916;-77
2023/08/13 03:20:01;;;;;;;;;;;;;;;;;;1044270;28;19909;-77
2023/08/13 03:20:31;;;;;;;;;;;;;;;;;;1044061;28;19987;-78
2023/08/13 03:21:01;;;;;;;;;;;;;;;;;;1036092;28;19910;-77
2023/08/13 03:21:32;;;;;;;;;;;;;;;;;;1036308;28;19920;-75
2023/08/13 03:22:02;;;;;;;;;;;;;;;;;;1040152;28;20007;-77
2023/08/13 03:22:32;;;;;;;;;;;;;;;;;;1036414;28;19913;-77
2023/08/13 03:23:02;;;;;;;;;;;;;;;;;;1040262;28;19974;-77
2023/08/13 03:23:32;;;;;;;;;;;;;;;;;;1036223;28;19924;-77
2023/08/13 03:24:03;;;;;;;;;;;;;;;;;;1036171;28;20364;-76
2023/08/13 03:24:33;;;;;;;;;;;;;;;;;;1040390;28;20401;-77
2023/08/13 03:25:03;;;;;;;;;;;;;;;;;;1036109;28;20341;-76
2023/08/13 03:25:33;;;;;;;;;;;;;;;;;;1040446;28;20019;-78
2023/08/13 03:26:04;;;;;;;;;;;;;;;;;;1040193;28;19909;-77
2023/08/13 03:26:34;;;;;;;;;;;;;;;;;;1040329;28;19951;-77
2023/08/13 03:27:04;;;;;;;;;;;;;;;;;;1040200;28;19909;-78
2023/08/13 03:27:34;;;;;;;;;;;;;;;;;;1040403;28;20011;-79